Time,TemperatureF,DewpointF,PressureIn,WindDirection,WindDirectionDegrees,WindSpeedMPH,WindSpeedGustMPH,Humidity,HourlyPrecipIn,Conditions,Clouds,dailyrainin,SoftwareType,DateUTC
2013-06-22 01:17:00,-999.0,-99.9,-100.00,North,-999,-999.0,-999.0,-999,-99.99,,,-99.99,Acu-Link.com,2013-06-22 06:17:00,
2013-06-22 01:32:00,72.3,71.7,29.83,South,180,0.0,-999.0,98,-99.99,,,0.00,Acu-Link.com,2013-06-22 06:32:00,
2013-06-22 01:47:00,72.0,71.4,29.83,NE,45,0.0,-999.0,98,-99.99,,,0.00,Acu-Link.com,2013-06-22 06:47:00,
2013-06-22 02:03:00,71.8,71.2,29.82,SE,135,0.0,-999.0,98,-99.99,,,0.00,Acu-Link.com,2013-06-22 07:03:00,
2013-06-22 02:18:00,71.4,70.8,29.82,ENE,67,0.0,-999.0,98,-99.99,,,0.00,Acu-Link.com,2013-06-22 07:18:00,
2013-06-22 02:33:00,71.1,70.5,29.82,NNW,337,0.0,-999.0,98,-99.99,,,0.00,Acu-Link.com,2013-06-22 07:33:00,
2013-06-22 02:48:00,70.7,70.1,29.82,West,270,0.0,-999.0,98,-99.99,,,0.00,Acu-Link.com,2013-06-22 07:48:00,
2013-06-22 03:04:00,70.7,70.1,29.82,NNE,22,0.0,-999.0,98,-99.99,,,0.00,Acu-Link.com,2013-06-22 08:04:00,
2013-06-22 03:19:00,70.5,69.9,29.82,SE,135,0.0,-999.0,98,-99.99,,,0.00,Acu-Link.com,2013-06-22 08:19:00,
2013-06-22 03:34:00,70.3,69.7,29.82,SSE,157,0.0,-999.0,98,-99.99,,,0.00,Acu-Link.com,2013-06-22 08:34:00,
2013-06-22 03:50:00,70.3,69.7,29.82,WNW,292,0.0,-999.0,98,-99.99,,,0.00,Acu-Link.com,2013-06-22 08:50:00,
2013-06-22 04:05:00,69.8,69.2,29.83,East,90,0.0,-999.0,98,-99.99,,,0.00,Acu-Link.com,2013-06-22 09:05:00,
2013-06-22 04:20:00,69.4,68.8,29.82,West,270,0.0,-999.0,98,-99.99,,,0.00,Acu-Link.com,2013-06-22 09:20:00,
2013-06-22 04:35:00,69.1,68.5,29.82,ESE,112,0.0,-999.0,98,-99.99,,,0.00,Acu-Link.com,2013-06-22 09:35:00,
2013-06-22 04:50:00,68.9,68.3,29.82,ENE,67,0.0,-999.0,98,-99.99,,,0.00,Acu-Link.com,2013-06-22 09:50:00,
2013-06-22 05:06:00,68.7,68.1,29.83,ENE,67,0.0,-999.0,98,-99.99,,,0.00,Acu-Link.com,2013-06-22 10:06:00,
2013-06-22 05:21:00,68.7,68.1,29.84,SE,135,0.0,-999.0,98,-99.99,,,0.00,Acu-Link.com,2013-06-22 10:21:00,
2013-06-22 05:36:00,68.4,67.8,29.84,East,90,0.0,-999.0,98,-99.99,,,0.00,Acu-Link.com,2013-06-22 10:36:00,
2013-06-22 05:51:00,68.4,67.8,29.84,NE,45,0.0,-999.0,98,-99.99,,,0.00,Acu-Link.com,2013-06-22 10:51:00,
2013-06-22 06:06:00,68.4,67.8,29.84,East,90,0.0,-999.0,98,-99.99,,,0.00,Acu-Link.com,2013-06-22 11:06:00,
2013-06-22 06:21:00,68.4,67.8,29.84,NE,45,0.0,-999.0,98,-99.99,,,0.00,Acu-Link.com,2013-06-22 11:21:00,
2013-06-22 06:36:00,68.9,68.3,29.85,West,270,0.0,-999.0,98,-99.99,,,0.00,Acu-Link.com,2013-06-22 11:36:00,
2013-06-22 06:51:00,69.8,69.2,29.85,South,180,0.0,-999.0,98,-99.99,,,0.00,Acu-Link.com,2013-06-22 11:51:00,
2013-06-22 07:07:00,71.2,70.6,29.85,SSE,157,0.0,-999.0,98,-99.99,,,0.00,Acu-Link.com,2013-06-22 12:07:00,
2013-06-22 07:22:00,72.3,71.7,29.85,SW,225,0.0,-999.0,98,-99.99,,,0.00,Acu-Link.com,2013-06-22 12:22:00,
2013-06-22 07:37:00,73.4,72.8,29.85,NE,45,1.1,-999.0,98,-99.99,,,0.00,Acu-Link.com,2013-06-22 12:37:00,
2013-06-22 07:52:00,74.7,74.1,29.85,SSW,202,1.7,-999.0,98,-99.99,,,0.00,Acu-Link.com,2013-06-22 12:52:00,
2013-06-22 08:07:00,76.1,75.5,29.85,SSE,157,0.0,-999.0,98,-99.99,,,0.00,Acu-Link.com,2013-06-22 13:07:00,
2013-06-22 08:22:00,77.0,76.4,29.85,SSW,202,0.0,-999.0,98,-99.99,,,0.00,Acu-Link.com,2013-06-22 13:22:00,
2013-06-22 08:37:00,77.9,77.3,29.85,SSE,157,2.2,-999.0,98,-99.99,,,0.00,Acu-Link.com,2013-06-22 13:37:00,
2013-06-22 08:52:00,79.0,78.4,29.86,NNE,22,0.0,-999.0,98,-99.99,,,0.00,Acu-Link.com,2013-06-22 13:52:00,
2013-06-22 09:07:00,80.4,79.8,29.87,South,180,0.0,-999.0,98,-99.99,,,0.00,Acu-Link.com,2013-06-22 14:07:00,
2013-06-22 09:23:00,81.7,81.1,29.86,SW,225,5.3,-999.0,98,-99.99,,,0.00,Acu-Link.com,2013-06-22 14:23:00,
2013-06-22 09:38:00,82.8,82.2,29.86,ESE,112,1.7,-999.0,98,-99.99,,,0.00,Acu-Link.com,2013-06-22 14:38:00,
2013-06-22 09:53:00,83.3,82.7,29.87,NE,45,0.0,-999.0,98,-99.99,,,0.00,Acu-Link.com,2013-06-22 14:53:00,
2013-06-22 10:08:00,84.7,84.1,29.87,ESE,112,1.1,-999.0,98,-99.99,,,0.00,Acu-Link.com,2013-06-22 15:08:00,
2013-06-22 10:23:00,85.1,83.2,29.88,SSE,157,4.7,-999.0,94,-99.99,,,0.00,Acu-Link.com,2013-06-22 15:23:00,
2013-06-22 10:38:00,86.2,84.6,29.87,East,90,1.7,-999.0,95,-99.99,,,0.00,Acu-Link.com,2013-06-22 15:38:00,
2013-06-22 10:54:00,87.3,84.3,29.87,East,90,0.0,-999.0,91,-99.99,,,0.00,Acu-Link.com,2013-06-22 15:54:00,
2013-06-22 11:09:00,85.6,83.7,29.87,SSE,157,0.0,-999.0,94,-99.99,,,0.00,Acu-Link.com,2013-06-22 16:09:00,
2013-06-22 11:24:00,88.3,82.8,29.88,SSE,157,3.2,-999.0,84,-99.99,,,0.00,Acu-Link.com,2013-06-22 16:24:00,
2013-06-22 11:39:00,87.4,83.7,29.87,South,180,2.2,-999.0,89,-99.99,,,0.00,Acu-Link.com,2013-06-22 16:39:00,
2013-06-22 11:54:00,88.0,82.9,29.87,SSW,202,2.7,-999.0,85,-99.99,,,0.00,Acu-Link.com,2013-06-22 16:54:00,
2013-06-22 12:09:00,88.0,81.8,29.86,NNE,22,0.0,-999.0,82,-99.99,,,0.00,Acu-Link.com,2013-06-22 17:09:00,
2013-06-22 12:24:00,88.9,83.0,29.87,SW,225,3.2,-999.0,83,-99.99,,,0.00,Acu-Link.com,2013-06-22 17:24:00,
2013-06-22 12:39:00,89.1,84.7,29.86,ESE,112,2.7,-999.0,87,-99.99,,,0.00,Acu-Link.com,2013-06-22 17:39:00,
2013-06-22 12:54:00,88.3,83.6,29.85,SSE,157,2.2,-999.0,86,-99.99,,,0.00,Acu-Link.com,2013-06-22 17:54:00,
2013-06-22 13:10:00,90.3,82.1,29.85,SW,225,4.7,-999.0,77,-99.99,,,0.00,Acu-Link.com,2013-06-22 18:10:00,
2013-06-22 13:25:00,88.7,78.9,29.85,SW,225,2.7,-999.0,73,-99.99,,,0.00,Acu-Link.com,2013-06-22 18:25:00,
2013-06-22 13:40:00,88.3,81.7,29.84,West,270,1.1,-999.0,81,-99.99,,,0.00,Acu-Link.com,2013-06-22 18:40:00,
2013-06-22 13:55:00,86.4,82.1,29.83,WNW,292,3.2,-999.0,87,-99.99,,,0.00,Acu-Link.com,2013-06-22 18:55:00,
2013-06-22 14:10:00,84.0,80.4,29.83,North,0,5.3,-999.0,89,-99.99,,,0.00,Acu-Link.com,2013-06-22 19:10:00,
2013-06-22 14:25:00,83.8,79.9,29.83,North,0,3.7,-999.0,88,-99.99,,,0.00,Acu-Link.com,2013-06-22 19:25:00,
2013-06-22 14:40:00,83.1,77.7,29.83,ESE,112,4.7,-999.0,84,-99.99,,,0.00,Acu-Link.com,2013-06-22 19:40:00,
2013-06-22 14:56:00,84.0,76.4,29.84,East,90,1.1,-999.0,78,-99.99,,,0.00,Acu-Link.com,2013-06-22 19:56:00,
2013-06-22 15:11:00,79.7,76.5,29.85,SSE,157,3.2,-999.0,90,-99.99,,,0.00,Acu-Link.com,2013-06-22 20:11:00,
2013-06-22 15:26:00,78.8,77.2,29.82,SSE,157,3.2,-999.0,95,-99.99,,,0.00,Acu-Link.com,2013-06-22 20:26:00,
2013-06-22 15:41:00,80.1,76.2,29.81,South,180,0.0,-999.0,88,-99.99,,,0.00,Acu-Link.com,2013-06-22 20:41:00,
2013-06-22 15:56:00,79.9,75.0,29.81,ESE,112,0.0,-999.0,85,-99.99,,,0.00,Acu-Link.com,2013-06-22 20:56:00,
2013-06-22 16:11:00,81.0,76.4,29.81,South,180,2.2,-999.0,86,-99.99,,,0.00,Acu-Link.com,2013-06-22 21:11:00,
2013-06-22 16:26:00,80.4,75.8,29.82,SSE,157,3.7,-999.0,86,-99.99,,,0.00,Acu-Link.com,2013-06-22 21:26:00,
2013-06-22 16:41:00,80.2,77.0,29.80,SE,135,2.7,-999.0,90,-99.99,,,0.00,Acu-Link.com,2013-06-22 21:41:00,
2013-06-22 16:56:00,80.8,77.2,29.80,SW,225,2.7,-999.0,89,-99.99,,,0.00,Acu-Link.com,2013-06-22 21:56:00,
2013-06-22 17:12:00,79.9,78.7,29.80,South,180,1.1,-999.0,96,-99.99,,,0.00,Acu-Link.com,2013-06-22 22:12:00,
2013-06-22 17:27:00,81.3,78.1,29.78,SSE,157,0.0,-999.0,90,-99.99,,,0.00,Acu-Link.com,2013-06-22 22:27:00,
2013-06-22 17:42:00,81.5,77.9,29.77,SSE,157,0.0,-999.0,89,-99.99,,,0.00,Acu-Link.com,2013-06-22 22:42:00,
2013-06-22 17:57:00,82.6,79.0,29.76,SE,135,1.1,-999.0,89,-99.99,,,0.00,Acu-Link.com,2013-06-22 22:57:00,
2013-06-22 18:12:00,83.3,78.7,29.76,South,180,0.0,-999.0,86,-99.99,,,0.00,Acu-Link.com,2013-06-22 23:12:00,
2013-06-22 18:27:00,82.8,78.2,29.76,ESE,112,1.1,-999.0,86,-99.99,,,0.00,Acu-Link.com,2013-06-22 23:27:00,
2013-06-22 18:43:00,82.2,78.3,29.76,South,180,1.1,-999.0,88,-99.99,,,0.00,Acu-Link.com,2013-06-22 23:43:00,
2013-06-22 18:58:00,81.9,78.3,29.76,SSE,157,1.7,-999.0,89,-99.99,,,0.00,Acu-Link.com,2013-06-22 23:58:00,
2013-06-22 19:13:00,81.3,79.4,29.76,ESE,112,0.0,-999.0,94,-99.99,,,0.00,Acu-Link.com,2013-06-23 00:13:00,
2013-06-22 19:28:00,82.0,79.4,29.76,NNE,22,0.0,-999.0,92,-99.99,,,0.00,Acu-Link.com,2013-06-23 00:28:00,
2013-06-22 19:43:00,80.4,78.5,29.76,South,180,0.0,-999.0,94,-99.99,,,0.00,Acu-Link.com,2013-06-23 00:43:00,
2013-06-22 19:58:00,79.0,78.4,29.76,ESE,112,0.0,-999.0,98,-99.99,,,0.00,Acu-Link.com,2013-06-23 00:58:00,
2013-06-22 20:13:00,77.2,76.6,29.76,WSW,247,0.0,-999.0,98,-99.99,,,0.00,Acu-Link.com,2013-06-23 01:13:00,
2013-06-22 20:28:00,75.9,75.3,29.76,South,180,0.0,-999.0,98,-99.99,,,0.00,Acu-Link.com,2013-06-23 01:28:00,
2013-06-22 20:43:00,75.6,75.0,29.76,NE,45,0.0,-999.0,98,-99.99,,,0.00,Acu-Link.com,2013-06-23 01:43:00,
2013-06-22 20:59:00,74.5,73.9,29.76,ESE,112,0.0,-999.0,98,-99.99,,,0.00,Acu-Link.com,2013-06-23 01:59:00,
2013-06-22 21:14:00,73.6,73.0,29.77,NE,45,0.0,-999.0,98,-99.99,,,0.00,Acu-Link.com,2013-06-23 02:14:00,
2013-06-22 21:29:00,73.0,72.4,29.78,NE,45,0.0,-999.0,98,-99.99,,,0.00,Acu-Link.com,2013-06-23 02:29:00,
2013-06-22 21:44:00,72.7,72.1,29.78,SE,135,0.0,-999.0,98,-99.99,,,0.00,Acu-Link.com,2013-06-23 02:44:00,
2013-06-22 21:59:00,72.3,71.7,29.78,ENE,67,0.0,-999.0,98,-99.99,,,0.00,Acu-Link.com,2013-06-23 02:59:00,
2013-06-22 22:14:00,72.0,71.4,29.79,South,180,0.0,-999.0,98,-99.99,,,0.00,Acu-Link.com,2013-06-23 03:14:00,
2013-06-22 22:29:00,71.6,71.0,29.79,South,180,0.0,-999.0,98,-99.99,,,0.00,Acu-Link.com,2013-06-23 03:29:00,
2013-06-22 22:45:00,71.2,70.6,29.80,South,180,0.0,-999.0,98,-99.99,,,0.00,Acu-Link.com,2013-06-23 03:45:00,
2013-06-22 23:00:00,71.1,70.5,29.79,NW,315,0.0,-999.0,98,-99.99,,,0.00,Acu-Link.com,2013-06-23 04:00:00,
2013-06-22 23:15:00,71.1,70.5,29.80,NW,315,0.0,-999.0,98,-99.99,,,0.00,Acu-Link.com,2013-06-23 04:15:00,
2013-06-22 23:30:00,70.9,70.3,29.81,NE,45,0.0,-999.0,98,-99.99,,,0.00,Acu-Link.com,2013-06-23 04:30:00,
2013-06-22 23:45:00,70.9,70.3,29.81,SSE,157,0.0,-999.0,98,-99.99,,,0.00,Acu-Link.com,2013-06-23 04:45:00,